Terminal Aerodrome Forecast
Issued by NWS Brownsville, TX

Home | Current Version | Previous Version | Text Only | Print | Product List | Glossary On
Versions: 1 2 3 4 5 6 7 8 9 10 11 12 13 14 15
984
FTUS44 KBRO 182340
TAFHRL
TAF
KHRL 182340Z 1900/1924 35006KT P6SM VCSH BKN025
     FM190900 32002KT 4SM RA BR BKN009
     FM191600 24004KT P6SM BKN015
     FM192100 21006KT P6SM SCT015 BKN035=

USA.gov is the U.S. government's official web portal to all federal, state and local government web resources and services.